sensor_id;sensor_type;location;lat;lon;timestamp;P1;durP1;ratioP1;P2;durP2;ratioP2
31402;SDS011;18039;52.188;21.024;2023-04-01T00:01:47;23.38;;;13.93;;
31402;SDS011;18039;52.188;21.024;2023-04-01T00:04:14;26.08;;;13.48;;
31402;SDS011;18039;52.188;21.024;2023-04-01T00:06:42;22.42;;;14.20;;
31402;SDS011;18039;52.188;21.024;2023-04-01T00:09:10;27.73;;;14.13;;
31402;SDS011;18039;52.188;21.024;2023-04-01T00:11:37;24.58;;;14.05;;
31402;SDS011;18039;52.188;21.024;2023-04-01T00:14:05;28.15;;;14.20;;
31402;SDS011;18039;52.188;21.024;2023-04-01T00:16:33;23.65;;;14.65;;
31402;SDS011;18039;52.188;21.024;2023-04-01T00:19:00;23.95;;;14.73;;
31402;SDS011;18039;52.188;21.024;2023-04-01T00:21:27;26.88;;;14.25;;
31402;SDS011;18039;52.188;21.024;2023-04-01T00:23:54;24.98;;;15.13;;
31402;SDS011;18039;52.188;21.024;2023-04-01T00:26:22;27.75;;;16.20;;
31402;SDS011;18039;52.188;21.024;2023-04-01T00:28:49;28.13;;;15.63;;
31402;SDS011;18039;52.188;21.024;2023-04-01T00:31:17;26.05;;;15.65;;
31402;SDS011;18039;52.188;21.024;2023-04-01T00:33:45;25.00;;;15.57;;
31402;SDS011;18039;52.188;21.024;2023-04-01T00:36:17;26.60;;;15.85;;
31402;SDS011;18039;52.188;21.024;2023-04-01T00:38:46;26.95;;;15.07;;
31402;SDS011;18039;52.188;21.024;2023-04-01T00:41:14;27.23;;;15.88;;
31402;SDS011;18039;52.188;21.024;2023-04-01T00:43:44;35.00;;;16.05;;
31402;SDS011;18039;52.188;21.024;2023-04-01T00:46:13;26.35;;;16.02;;
31402;SDS011;18039;52.188;21.024;2023-04-01T00:48:42;32.17;;;18.42;;
31402;SDS011;18039;52.188;21.024;2023-04-01T00:51:15;27.85;;;16.75;;
31402;SDS011;18039;52.188;21.024;2023-04-01T00:53:45;29.00;;;16.98;;
31402;SDS011;18039;52.188;21.024;2023-04-01T00:56:16;30.33;;;17.73;;
31402;SDS011;18039;52.188;21.024;2023-04-01T01:01:17;29.10;;;16.40;;
31402;SDS011;18039;52.188;21.024;2023-04-01T01:03:45;27.95;;;15.98;;
31402;SDS011;18039;52.188;21.024;2023-04-01T01:06:16;31.55;;;16.92;;
31402;SDS011;18039;52.188;21.024;2023-04-01T01:09:09;25.92;;;15.95;;
31402;SDS011;18039;52.188;21.024;2023-04-01T01:11:42;34.10;;;16.58;;
31402;SDS011;18039;52.188;21.024;2023-04-01T01:17:15;29.30;;;17.70;;
31402;SDS011;18039;52.188;21.024;2023-04-01T01:20:18;30.10;;;18.00;;
31402;SDS011;18039;52.188;21.024;2023-04-01T01:34:48;30.40;;;18.30;;
31402;SDS011;18039;52.188;21.024;2023-04-01T01:37:21;28.52;;;16.60;;
31402;SDS011;18039;52.188;21.024;2023-04-01T01:39:53;29.73;;;17.25;;
31402;SDS011;18039;52.188;21.024;2023-04-01T01:42:25;26.52;;;17.27;;
31402;SDS011;18039;52.188;21.024;2023-04-01T01:44:54;35.88;;;19.83;;
31402;SDS011;18039;52.188;21.024;2023-04-01T01:47:25;32.13;;;18.23;;
31402;SDS011;18039;52.188;21.024;2023-04-01T01:49:53;34.42;;;18.08;;
31402;SDS011;18039;52.188;21.024;2023-04-01T01:52:22;30.77;;;16.60;;
31402;SDS011;18039;52.188;21.024;2023-04-01T01:54:54;27.48;;;16.25;;
31402;SDS011;18039;52.188;21.024;2023-04-01T01:57:27;26.88;;;17.08;;
31402;SDS011;18039;52.188;21.024;2023-04-01T02:00:02;28.98;;;16.90;;
31402;SDS011;18039;52.188;21.024;2023-04-01T02:05:10;24.95;;;14.50;;
31402;SDS011;18039;52.188;21.024;2023-04-01T02:07:43;28.17;;;15.82;;
31402;SDS011;18039;52.188;21.024;2023-04-01T02:10:16;29.00;;;15.40;;
31402;SDS011;18039;52.188;21.024;2023-04-01T02:12:44;31.42;;;15.85;;
31402;SDS011;18039;52.188;21.024;2023-04-01T02:15:13;26.17;;;14.48;;
31402;SDS011;18039;52.188;21.024;2023-04-01T02:17:43;30.70;;;16.15;;
31402;SDS011;18039;52.188;21.024;2023-04-01T02:20:14;26.88;;;16.13;;
31402;SDS011;18039;52.188;21.024;2023-04-01T02:22:46;24.48;;;15.57;;
31402;SDS011;18039;52.188;21.024;2023-04-01T02:25:22;29.98;;;16.95;;
31402;SDS011;18039;52.188;21.024;2023-04-01T02:27:52;27.50;;;16.88;;
31402;SDS011;18039;52.188;21.024;2023-04-01T02:30:21;33.40;;;16.48;;
31402;SDS011;18039;52.188;21.024;2023-04-01T02:32:50;34.38;;;17.92;;
31402;SDS011;18039;52.188;21.024;2023-04-01T02:35:17;32.20;;;18.15;;
31402;SDS011;18039;52.188;21.024;2023-04-01T02:37:45;33.08;;;18.27;;
31402;SDS011;18039;52.188;21.024;2023-04-01T02:40:15;34.10;;;18.02;;
31402;SDS011;18039;52.188;21.024;2023-04-01T02:42:44;26.50;;;16.65;;
31402;SDS011;18039;52.188;21.024;2023-04-01T02:45:12;29.25;;;17.92;;
31402;SDS011;18039;52.188;21.024;2023-04-01T02:47:40;30.30;;;17.85;;
31402;SDS011;18039;52.188;21.024;2023-04-01T02:50:08;29.63;;;17.80;;
31402;SDS011;18039;52.188;21.024;2023-04-01T02:52:36;31.33;;;18.75;;
31402;SDS011;18039;52.188;21.024;2023-04-01T02:55:04;37.97;;;20.48;;
31402;SDS011;18039;52.188;21.024;2023-04-01T02:57:32;33.47;;;20.00;;
31402;SDS011;18039;52.188;21.024;2023-04-01T02:59:59;39.78;;;20.20;;
31402;SDS011;18039;52.188;21.024;2023-04-01T03:02:27;35.40;;;21.05;;
31402;SDS011;18039;52.188;21.024;2023-04-01T03:04:54;38.22;;;20.75;;
31402;SDS011;18039;52.188;21.024;2023-04-01T03:07:21;40.40;;;21.77;;
31402;SDS011;18039;52.188;21.024;2023-04-01T03:09:48;34.30;;;20.73;;
31402;SDS011;18039;52.188;21.024;2023-04-01T03:12:16;34.08;;;20.48;;
31402;SDS011;18039;52.188;21.024;2023-04-01T03:14:49;38.83;;;21.20;;
31402;SDS011;18039;52.188;21.024;2023-04-01T03:17:16;36.10;;;20.58;;
31402;SDS011;18039;52.188;21.024;2023-04-01T03:19:44;39.72;;;21.83;;
31402;SDS011;18039;52.188;21.024;2023-04-01T03:22:11;39.53;;;21.30;;
31402;SDS011;18039;52.188;21.024;2023-04-01T03:24:38;39.03;;;22.42;;
31402;SDS011;18039;52.188;21.024;2023-04-01T03:27:06;38.05;;;21.67;;
31402;SDS011;18039;52.188;21.024;2023-04-01T03:29:33;38.20;;;21.05;;
31402;SDS011;18039;52.188;21.024;2023-04-01T03:32:00;36.45;;;20.92;;
31402;SDS011;18039;52.188;21.024;2023-04-01T03:34:27;34.97;;;20.38;;
31402;SDS011;18039;52.188;21.024;2023-04-01T03:36:54;33.13;;;19.88;;
31402;SDS011;18039;52.188;21.024;2023-04-01T03:39:21;36.97;;;22.08;;
31402;SDS011;18039;52.188;21.024;2023-04-01T03:41:49;39.03;;;21.80;;
31402;SDS011;18039;52.188;21.024;2023-04-01T03:44:16;37.42;;;21.30;;
31402;SDS011;18039;52.188;21.024;2023-04-01T03:46:47;33.77;;;20.77;;
31402;SDS011;18039;52.188;21.024;2023-04-01T03:49:14;34.10;;;21.00;;
31402;SDS011;18039;52.188;21.024;2023-04-01T03:51:42;34.97;;;20.77;;
31402;SDS011;18039;52.188;21.024;2023-04-01T03:54:10;37.83;;;19.60;;
31402;SDS011;18039;52.188;21.024;2023-04-01T03:56:38;36.88;;;20.55;;
31402;SDS011;18039;52.188;21.024;2023-04-01T03:59:06;40.90;;;21.02;;
31402;SDS011;18039;52.188;21.024;2023-04-01T04:01:34;35.22;;;20.88;;
31402;SDS011;18039;52.188;21.024;2023-04-01T04:04:01;35.50;;;20.45;;
31402;SDS011;18039;52.188;21.024;2023-04-01T04:06:29;37.00;;;20.30;;
31402;SDS011;18039;52.188;21.024;2023-04-01T04:08:56;33.08;;;19.27;;
31402;SDS011;18039;52.188;21.024;2023-04-01T04:11:23;34.88;;;19.77;;
31402;SDS011;18039;52.188;21.024;2023-04-01T04:13:52;32.17;;;18.30;;
31402;SDS011;18039;52.188;21.024;2023-04-01T04:16:20;30.23;;;18.50;;
31402;SDS011;18039;52.188;21.024;2023-04-01T04:18:54;28.42;;;19.55;;
31402;SDS011;18039;52.188;21.024;2023-04-01T04:21:22;30.10;;;17.58;;
31402;SDS011;18039;52.188;21.024;2023-04-01T04:23:49;30.75;;;19.45;;
31402;SDS011;18039;52.188;21.024;2023-04-01T04:26:19;33.30;;;18.10;;
31402;SDS011;18039;52.188;21.024;2023-04-01T04:28:54;34.80;;;20.80;;
31402;SDS011;18039;52.188;21.024;2023-04-01T04:31:22;28.13;;;17.77;;
31402;SDS011;18039;52.188;21.024;2023-04-01T04:33:52;30.13;;;17.70;;
31402;SDS011;18039;52.188;21.024;2023-04-01T04:36:20;29.17;;;17.90;;
31402;SDS011;18039;52.188;21.024;2023-04-01T04:38:50;23.50;;;15.65;;
31402;SDS011;18039;52.188;21.024;2023-04-01T04:41:18;25.52;;;16.73;;
31402;SDS011;18039;52.188;21.024;2023-04-01T04:43:52;23.07;;;14.17;;
31402;SDS011;18039;52.188;21.024;2023-04-01T04:46:22;25.23;;;14.90;;
31402;SDS011;18039;52.188;21.024;2023-04-01T04:48:56;22.40;;;14.68;;
31402;SDS011;18039;52.188;21.024;2023-04-01T04:51:24;22.05;;;14.45;;
31402;SDS011;18039;52.188;21.024;2023-04-01T04:53:51;19.83;;;14.18;;
31402;SDS011;18039;52.188;21.024;2023-04-01T04:56:27;20.70;;;12.98;;
31402;SDS011;18039;52.188;21.024;2023-04-01T04:59:06;19.35;;;12.57;;
31402;SDS011;18039;52.188;21.024;2023-04-01T05:01:50;24.25;;;13.38;;
31402;SDS011;18039;52.188;21.024;2023-04-01T05:04:17;23.48;;;14.75;;
31402;SDS011;18039;52.188;21.024;2023-04-01T05:06:45;21.02;;;13.18;;
31402;SDS011;18039;52.188;21.024;2023-04-01T05:09:13;23.23;;;13.48;;
31402;SDS011;18039;52.188;21.024;2023-04-01T05:11:40;19.40;;;12.20;;
31402;SDS011;18039;52.188;21.024;2023-04-01T05:14:15;21.33;;;13.63;;
31402;SDS011;18039;52.188;21.024;2023-04-01T05:16:51;19.63;;;12.32;;
31402;SDS011;18039;52.188;21.024;2023-04-01T05:19:18;21.33;;;12.77;;
31402;SDS011;18039;52.188;21.024;2023-04-01T05:21:47;18.15;;;10.85;;
31402;SDS011;18039;52.188;21.024;2023-04-01T05:24:15;21.70;;;13.38;;
31402;SDS011;18039;52.188;21.024;2023-04-01T05:26:43;21.13;;;12.35;;
31402;SDS011;18039;52.188;21.024;2023-04-01T05:29:10;18.27;;;10.98;;
31402;SDS011;18039;52.188;21.024;2023-04-01T05:31:40;19.70;;;12.45;;
31402;SDS011;18039;52.188;21.024;2023-04-01T05:34:08;22.10;;;12.63;;
31402;SDS011;18039;52.188;21.024;2023-04-01T05:36:35;20.45;;;10.88;;
31402;SDS011;18039;52.188;21.024;2023-04-01T05:39:02;19.48;;;11.88;;
31402;SDS011;18039;52.188;21.024;2023-04-01T05:41:30;18.05;;;10.43;;
31402;SDS011;18039;52.188;21.024;2023-04-01T05:43:57;15.85;;;10.63;;
31402;SDS011;18039;52.188;21.024;2023-04-01T05:46:39;19.17;;;10.93;;
31402;SDS011;18039;52.188;21.024;2023-04-01T05:49:27;17.70;;;10.38;;
31402;SDS011;18039;52.188;21.024;2023-04-01T05:51:55;18.40;;;11.05;;
31402;SDS011;18039;52.188;21.024;2023-04-01T05:54:23;19.77;;;10.95;;
31402;SDS011;18039;52.188;21.024;2023-04-01T05:56:50;16.90;;;10.45;;
31402;SDS011;18039;52.188;21.024;2023-04-01T05:59:19;13.30;;;9.40;;
31402;SDS011;18039;52.188;21.024;2023-04-01T06:01:46;16.73;;;10.23;;
31402;SDS011;18039;52.188;21.024;2023-04-01T06:04:15;14.23;;;9.50;;
31402;SDS011;18039;52.188;21.024;2023-04-01T06:06:45;15.98;;;9.02;;
31402;SDS011;18039;52.188;21.024;2023-04-01T06:09:17;14.32;;;9.43;;
31402;SDS011;18039;52.188;21.024;2023-04-01T06:23:06;20.75;;;11.57;;
31402;SDS011;18039;52.188;21.024;2023-04-01T06:47:41;26.17;;;16.08;;
31402;SDS011;18039;52.188;21.024;2023-04-01T06:54:03;22.92;;;15.95;;
31402;SDS011;18039;52.188;21.024;2023-04-01T06:56:53;25.83;;;16.85;;
31402;SDS011;18039;52.188;21.024;2023-04-01T06:59:27;28.50;;;18.05;;
31402;SDS011;18039;52.188;21.024;2023-04-01T07:02:12;24.20;;;16.83;;
31402;SDS011;18039;52.188;21.024;2023-04-01T07:04:49;27.33;;;17.23;;
31402;SDS011;18039;52.188;21.024;2023-04-01T07:07:34;26.00;;;17.33;;
31402;SDS011;18039;52.188;21.024;2023-04-01T07:10:23;27.52;;;17.00;;
31402;SDS011;18039;52.188;21.024;2023-04-01T07:13:18;27.20;;;17.45;;
31402;SDS011;18039;52.188;21.024;2023-04-01T07:15:58;27.65;;;17.88;;
31402;SDS011;18039;52.188;21.024;2023-04-01T07:18:52;27.80;;;17.88;;
31402;SDS011;18039;52.188;21.024;2023-04-01T07:21:37;26.48;;;17.45;;
31402;SDS011;18039;52.188;21.024;2023-04-01T07:24:34;25.35;;;16.75;;
31402;SDS011;18039;52.188;21.024;2023-04-01T07:27:11;27.90;;;17.55;;
31402;SDS011;18039;52.188;21.024;2023-04-01T07:29:46;28.90;;;18.73;;
31402;SDS011;18039;52.188;21.024;2023-04-01T07:37:28;30.25;;;19.85;;
31402;SDS011;18039;52.188;21.024;2023-04-01T07:40:18;30.63;;;20.95;;
31402;SDS011;18039;52.188;21.024;2023-04-01T07:48:28;33.88;;;21.23;;
31402;SDS011;18039;52.188;21.024;2023-04-01T08:10:34;30.60;;;19.67;;
31402;SDS011;18039;52.188;21.024;2023-04-01T08:13:45;26.65;;;18.35;;
31402;SDS011;18039;52.188;21.024;2023-04-01T08:19:18;25.92;;;16.67;;
31402;SDS011;18039;52.188;21.024;2023-04-01T08:21:58;25.70;;;16.75;;
31402;SDS011;18039;52.188;21.024;2023-04-01T08:27:22;22.08;;;13.43;;
31402;SDS011;18039;52.188;21.024;2023-04-01T08:30:38;18.67;;;13.10;;
31402;SDS011;18039;52.188;21.024;2023-04-01T08:36:10;18.55;;;12.95;;
31402;SDS011;18039;52.188;21.024;2023-04-01T08:38:53;21.80;;;14.63;;
31402;SDS011;18039;52.188;21.024;2023-04-01T08:44:37;24.85;;;15.75;;
31402;SDS011;18039;52.188;21.024;2023-04-01T08:56:34;18.83;;;12.00;;
31402;SDS011;18039;52.188;21.024;2023-04-01T09:05:26;13.70;;;8.82;;
31402;SDS011;18039;52.188;21.024;2023-04-01T09:22:35;8.00;;;5.22;;
31402;SDS011;18039;52.188;21.024;2023-04-01T09:31:05;12.73;;;8.10;;
31402;SDS011;18039;52.188;21.024;2023-04-01T09:51:28;14.93;;;8.75;;
31402;SDS011;18039;52.188;21.024;2023-04-01T10:02:37;11.63;;;7.10;;
31402;SDS011;18039;52.188;21.024;2023-04-01T10:11:15;11.93;;;7.30;;
31402;SDS011;18039;52.188;21.024;2023-04-01T10:22:49;8.68;;;5.15;;
31402;SDS011;18039;52.188;21.024;2023-04-01T10:37:41;9.68;;;5.88;;
31402;SDS011;18039;52.188;21.024;2023-04-01T10:43:35;8.20;;;5.35;;
31402;SDS011;18039;52.188;21.024;2023-04-01T11:04:35;5.40;;;3.72;;
31402;SDS011;18039;52.188;21.024;2023-04-01T11:22:07;6.22;;;3.55;;
31402;SDS011;18039;52.188;21.024;2023-04-01T11:30:47;7.03;;;3.97;;
31402;SDS011;18039;52.188;21.024;2023-04-01T11:33:49;7.20;;;3.45;;
31402;SDS011;18039;52.188;21.024;2023-04-01T11:42:13;8.00;;;4.72;;
31402;SDS011;18039;52.188;21.024;2023-04-01T11:45:24;7.40;;;4.68;;
31402;SDS011;18039;52.188;21.024;2023-04-01T11:48:23;8.55;;;5.65;;
31402;SDS011;18039;52.188;21.024;2023-04-01T11:53:42;7.40;;;5.53;;
31402;SDS011;18039;52.188;21.024;2023-04-01T11:59:09;8.73;;;6.10;;
31402;SDS011;18039;52.188;21.024;2023-04-01T12:05:07;11.05;;;7.80;;
31402;SDS011;18039;52.188;21.024;2023-04-01T12:10:43;9.52;;;6.60;;
31402;SDS011;18039;52.188;21.024;2023-04-01T12:16:12;7.28;;;5.32;;
31402;SDS011;18039;52.188;21.024;2023-04-01T12:19:09;6.85;;;5.03;;
31402;SDS011;18039;52.188;21.024;2023-04-01T12:21:52;6.10;;;4.50;;
31402;SDS011;18039;52.188;21.024;2023-04-01T12:27:38;6.05;;;4.03;;
31402;SDS011;18039;52.188;21.024;2023-04-01T12:41:48;3.70;;;2.35;;
31402;SDS011;18039;52.188;21.024;2023-04-01T12:50:40;4.30;;;2.63;;
31402;SDS011;18039;52.188;21.024;2023-04-01T13:08:16;3.97;;;2.95;;
31402;SDS011;18039;52.188;21.024;2023-04-01T13:10:37;5.10;;;3.10;;
31402;SDS011;18039;52.188;21.024;2023-04-01T13:21:18;4.75;;;3.47;;
31402;SDS011;18039;52.188;21.024;2023-04-01T13:35:36;5.18;;;3.38;;
31402;SDS011;18039;52.188;21.024;2023-04-01T13:38:24;4.40;;;3.55;;
31402;SDS011;18039;52.188;21.024;2023-04-01T13:44:05;5.50;;;3.30;;
31402;SDS011;18039;52.188;21.024;2023-04-01T13:49:30;4.45;;;3.10;;
31402;SDS011;18039;52.188;21.024;2023-04-01T13:55:14;4.28;;;3.30;;
31402;SDS011;18039;52.188;21.024;2023-04-01T14:29:52;5.30;;;4.25;;
31402;SDS011;18039;52.188;21.024;2023-04-01T14:32:51;11.73;;;8.00;;
31402;SDS011;18039;52.188;21.024;2023-04-01T14:38:27;9.48;;;7.43;;
31402;SDS011;18039;52.188;21.024;2023-04-01T14:44:17;3.22;;;1.83;;
31402;SDS011;18039;52.188;21.024;2023-04-01T14:52:11;3.00;;;1.92;;
31402;SDS011;18039;52.188;21.024;2023-04-01T14:54:48;3.65;;;2.08;;
31402;SDS011;18039;52.188;21.024;2023-04-01T14:57:23;2.30;;;1.75;;
31402;SDS011;18039;52.188;21.024;2023-04-01T15:08:33;5.18;;;2.38;;
31402;SDS011;18039;52.188;21.024;2023-04-01T15:13:53;2.25;;;1.75;;
31402;SDS011;18039;52.188;21.024;2023-04-01T15:25:47;4.47;;;2.30;;
31402;SDS011;18039;52.188;21.024;2023-04-01T15:28:30;3.55;;;2.28;;
31402;SDS011;18039;52.188;21.024;2023-04-01T15:34:13;3.20;;;1.75;;
31402;SDS011;18039;52.188;21.024;2023-04-01T15:48:12;3.75;;;2.10;;
31402;SDS011;18039;52.188;21.024;2023-04-01T15:56:36;3.47;;;1.73;;
31402;SDS011;18039;52.188;21.024;2023-04-01T15:59:15;4.68;;;2.08;;
31402;SDS011;18039;52.188;21.024;2023-04-01T16:12:40;3.85;;;1.90;;
31402;SDS011;18039;52.188;21.024;2023-04-01T16:15:31;4.35;;;2.15;;
31402;SDS011;18039;52.188;21.024;2023-04-01T16:20:54;3.47;;;2.30;;
31402;SDS011;18039;52.188;21.024;2023-04-01T16:23:30;3.25;;;2.30;;
31402;SDS011;18039;52.188;21.024;2023-04-01T16:26:13;9.10;;;4.97;;
31402;SDS011;18039;52.188;21.024;2023-04-01T16:29:03;4.50;;;3.20;;
31402;SDS011;18039;52.188;21.024;2023-04-01T16:34:38;5.22;;;2.47;;
31402;SDS011;18039;52.188;21.024;2023-04-01T16:37:22;3.00;;;2.00;;
31402;SDS011;18039;52.188;21.024;2023-04-01T16:48:50;3.75;;;2.40;;
31402;SDS011;18039;52.188;21.024;2023-04-01T16:51:31;4.80;;;2.20;;
31402;SDS011;18039;52.188;21.024;2023-04-01T16:54:11;2.80;;;1.73;;
31402;SDS011;18039;52.188;21.024;2023-04-01T16:57:02;1.90;;;1.67;;
31402;SDS011;18039;52.188;21.024;2023-04-01T17:02:16;3.20;;;1.50;;
31402;SDS011;18039;52.188;21.024;2023-04-01T17:04:48;1.95;;;1.30;;
31402;SDS011;18039;52.188;21.024;2023-04-01T17:10:18;4.20;;;2.55;;
31402;SDS011;18039;52.188;21.024;2023-04-01T17:20:46;3.50;;;1.60;;
31402;SDS011;18039;52.188;21.024;2023-04-01T17:23:43;3.17;;;2.15;;
31402;SDS011;18039;52.188;21.024;2023-04-01T17:28:53;2.90;;;2.00;;
31402;SDS011;18039;52.188;21.024;2023-04-01T17:31:30;5.18;;;2.13;;
31402;SDS011;18039;52.188;21.024;2023-04-01T17:39:54;2.47;;;1.70;;
31402;SDS011;18039;52.188;21.024;2023-04-01T17:46:02;3.13;;;1.77;;
31402;SDS011;18039;52.188;21.024;2023-04-01T17:59:26;3.78;;;2.45;;
31402;SDS011;18039;52.188;21.024;2023-04-01T18:02:10;4.13;;;2.28;;
31402;SDS011;18039;52.188;21.024;2023-04-01T18:07:56;9.55;;;4.57;;
31402;SDS011;18039;52.188;21.024;2023-04-01T18:10:41;8.15;;;5.25;;
31402;SDS011;18039;52.188;21.024;2023-04-01T18:21:37;8.63;;;6.28;;
31402;SDS011;18039;52.188;21.024;2023-04-01T18:24:35;12.10;;;7.57;;
31402;SDS011;18039;52.188;21.024;2023-04-01T18:35:21;12.23;;;8.32;;
31402;SDS011;18039;52.188;21.024;2023-04-01T18:41:11;11.20;;;7.32;;
31402;SDS011;18039;52.188;21.024;2023-04-01T18:46:41;12.70;;;7.43;;
31402;SDS011;18039;52.188;21.024;2023-04-01T18:51:58;16.13;;;9.93;;
31402;SDS011;18039;52.188;21.024;2023-04-01T18:54:31;12.98;;;8.82;;
31402;SDS011;18039;52.188;21.024;2023-04-01T18:59:41;17.23;;;11.15;;
31402;SDS011;18039;52.188;21.024;2023-04-01T19:07:54;20.15;;;12.48;;
31402;SDS011;18039;52.188;21.024;2023-04-01T19:26:33;15.88;;;9.95;;
31402;SDS011;18039;52.188;21.024;2023-04-01T19:29:23;17.42;;;10.55;;
31402;SDS011;18039;52.188;21.024;2023-04-01T19:37:57;17.60;;;10.68;;
31402;SDS011;18039;52.188;21.024;2023-04-01T19:40:51;19.42;;;11.30;;
31402;SDS011;18039;52.188;21.024;2023-04-01T19:45:51;16.92;;;10.93;;
31402;SDS011;18039;52.188;21.024;2023-04-01T19:51:37;19.77;;;12.27;;
31402;SDS011;18039;52.188;21.024;2023-04-01T20:00:06;19.23;;;11.63;;
31402;SDS011;18039;52.188;21.024;2023-04-01T20:13:54;19.55;;;12.20;;
31402;SDS011;18039;52.188;21.024;2023-04-01T20:16:43;19.55;;;12.07;;
31402;SDS011;18039;52.188;21.024;2023-04-01T20:19:25;17.85;;;10.48;;
31402;SDS011;18039;52.188;21.024;2023-04-01T20:21:56;20.15;;;11.38;;
31402;SDS011;18039;52.188;21.024;2023-04-01T20:24:35;21.05;;;12.35;;
31402;SDS011;18039;52.188;21.024;2023-04-01T20:27:09;18.13;;;10.50;;
31402;SDS011;18039;52.188;21.024;2023-04-01T20:44:41;11.90;;;7.10;;
31402;SDS011;18039;52.188;21.024;2023-04-01T20:50:34;13.38;;;7.45;;
31402;SDS011;18039;52.188;21.024;2023-04-01T20:56:17;13.93;;;8.50;;
31402;SDS011;18039;52.188;21.024;2023-04-01T21:04:55;22.33;;;12.80;;
31402;SDS011;18039;52.188;21.024;2023-04-01T21:08:12;21.08;;;12.10;;
31402;SDS011;18039;52.188;21.024;2023-04-01T21:11:07;21.52;;;12.13;;
31402;SDS011;18039;52.188;21.024;2023-04-01T21:13:47;16.17;;;10.60;;
31402;SDS011;18039;52.188;21.024;2023-04-01T21:29:53;10.82;;;7.93;;
31402;SDS011;18039;52.188;21.024;2023-04-01T21:38:51;10.82;;;6.93;;
31402;SDS011;18039;52.188;21.024;2023-04-01T21:47:27;14.82;;;10.07;;
31402;SDS011;18039;52.188;21.024;2023-04-01T22:07:13;13.25;;;8.23;;
31402;SDS011;18039;52.188;21.024;2023-04-01T22:12:38;8.55;;;6.38;;
31402;SDS011;18039;52.188;21.024;2023-04-01T22:15:16;12.55;;;6.78;;
31402;SDS011;18039;52.188;21.024;2023-04-01T22:18:04;10.10;;;6.35;;
31402;SDS011;18039;52.188;21.024;2023-04-01T22:20:45;11.50;;;6.32;;
31402;SDS011;18039;52.188;21.024;2023-04-01T22:23:31;7.78;;;5.75;;
31402;SDS011;18039;52.188;21.024;2023-04-01T22:26:15;10.65;;;6.35;;
31402;SDS011;18039;52.188;21.024;2023-04-01T22:42:58;7.78;;;4.95;;
31402;SDS011;18039;52.188;21.024;2023-04-01T22:48:19;9.48;;;4.95;;
31402;SDS011;18039;52.188;21.024;2023-04-01T22:51:05;8.93;;;5.10;;
31402;SDS011;18039;52.188;21.024;2023-04-01T22:56:31;8.07;;;4.68;;
31402;SDS011;18039;52.188;21.024;2023-04-01T22:59:19;6.85;;;4.43;;
31402;SDS011;18039;52.188;21.024;2023-04-01T23:01:59;7.65;;;4.75;;
31402;SDS011;18039;52.188;21.024;2023-04-01T23:04:32;7.72;;;4.50;;
31402;SDS011;18039;52.188;21.024;2023-04-01T23:07:07;8.07;;;4.65;;
31402;SDS011;18039;52.188;21.024;2023-04-01T23:10:18;9.23;;;4.97;;
31402;SDS011;18039;52.188;21.024;2023-04-01T23:13:02;8.90;;;5.22;;
31402;SDS011;18039;52.188;21.024;2023-04-01T23:15:30;11.20;;;6.03;;
31402;SDS011;18039;52.188;21.024;2023-04-01T23:25:49;9.70;;;6.35;;
31402;SDS011;18039;52.188;21.024;2023-04-01T23:28:28;9.52;;;5.90;;
31402;SDS011;18039;52.188;21.024;2023-04-01T23:31:06;8.65;;;5.35;;
31402;SDS011;18039;52.188;21.024;2023-04-01T23:33:58;10.52;;;5.68;;
31402;SDS011;18039;52.188;21.024;2023-04-01T23:36:28;8.82;;;6.00;;
31402;SDS011;18039;52.188;21.024;2023-04-01T23:38:56;7.28;;;4.85;;
31402;SDS011;18039;52.188;21.024;2023-04-01T23:41:30;6.63;;;4.10;;
31402;SDS011;18039;52.188;21.024;2023-04-01T23:44:08;7.60;;;4.85;;
31402;SDS011;18039;52.188;21.024;2023-04-01T23:46:38;9.73;;;5.30;;
31402;SDS011;18039;52.188;21.024;2023-04-01T23:49:41;8.88;;;5.35;;
31402;SDS011;18039;52.188;21.024;2023-04-01T23:52:04;10.32;;;5.03;;
31402;SDS011;18039;52.188;21.024;2023-04-01T23:54:40;8.05;;;5.10;;
31402;SDS011;18039;52.188;21.024;2023-04-01T23:57:12;7.40;;;4.43;;
31402;SDS011;18039;52.188;21.024;2023-04-01T23:59:42;9.10;;;4.80;;
